Vici, Oklahoma
Current Conditions -  °F | °C
As of 6:35 PM on Saturday 25 Oct 2014 (Local Time) from KWWR Reporting Station
Clear Clear  
Wind Chill: 82°   Ceiling: Unl
Heat Index: 82°   Visibility: 10mi
Dew Point: 46°   Wind: 9mph
Humidity: 28%   Direction: 170°S
Pressure: 30.02"   Gusts: NA
Location:  36.15°N, 99.3°W
Report Text: KWWR 252335Z AUTO 17008KT 10SM CLR 28/08 A3002 RMK AO2
Loading
Personal Weather Stations






























Interactive Weather Map
Tropical Storm Tracking
New forecast layout! Learn more

10-Day Weather Forecast

Advertisements
Track Severe Weather on mobile